Time;durP1;ratioP1;P1;durP2;ratioP2;P2;SDS_P1;SDS_P2;PMS_P1;PMS_P2;Temp;Humidity;BMP_temperature;BMP_pressure;BME280_temperature;BME280_humidity;BME280_pressure;Samples;Min_cycle;Max_cycle;Signal;HPM_P1;HPM_P2
2023/12/31 00:01:11;;;;;;;73.35;56.30;;;;;;;;;;10127957;28;20052;-78
2023/12/31 00:06:03;;;;;;;73.25;57.08;;;;;;;;;;10115537;28;20131;-77
2023/12/31 00:10:55;;;;;;;72.55;55.70;;;;;;;;;;10139216;28;20414;-78
2023/12/31 00:15:47;;;;;;;73.22;56.28;;;;;;;;;;10124786;28;20456;-78
2023/12/31 00:20:39;;;;;;;73.53;53.83;;;;;;;;;;10126312;28;20091;-78
2023/12/31 00:25:31;;;;;;;73.65;55.65;;;;;;;;;;10148279;28;20052;-78
2023/12/31 00:30:23;;;;;;;74.97;54.03;;;;;;;;;;10116640;28;20052;-77
2023/12/31 00:35:15;;;;;;;68.57;52.30;;;;;;;;;;10128457;28;20041;-77
2023/12/31 00:40:07;;;;;;;66.00;49.45;;;;;;;;;;10133337;28;20045;-77
2023/12/31 00:44:59;;;;;;;68.13;54.20;;;;;;;;;;10125776;28;20135;-77
2023/12/31 00:49:51;;;;;;;66.22;52.25;;;;;;;;;;10132719;28;20040;-77
2023/12/31 00:54:43;;;;;;;73.93;55.53;;;;;;;;;;10134812;28;20053;-77
2023/12/31 00:59:34;;;;;;;65.50;52.08;;;;;;;;;;10161995;28;20072;-77
2023/12/31 01:04:27;;;;;;;72.80;52.85;;;;;;;;;;10135184;28;20072;-78
2023/12/31 01:09:20;;;;;;;71.90;52.88;;;;;;;;;;10125050;28;20044;-77
2023/12/31 01:14:14;;;;;;;66.82;50.72;;;;;;;;;;10146717;28;20041;-77
2023/12/31 01:19:06;;;;;;;65.45;51.13;;;;;;;;;;10147161;28;20082;-77
2023/12/31 01:23:58;;;;;;;67.65;49.83;;;;;;;;;;10145318;28;20048;-77
2023/12/31 01:28:50;;;;;;;66.20;51.28;;;;;;;;;;10145849;28;20248;-77
2023/12/31 01:33:42;;;;;;;70.88;52.78;;;;;;;;;;10146983;28;20060;-78
2023/12/31 01:38:35;;;;;;;68.93;50.95;;;;;;;;;;10146390;28;20044;-77
2023/12/31 01:43:27;;;;;;;62.17;50.83;;;;;;;;;;10144960;28;20045;-77
2023/12/31 01:48:19;;;;;;;68.90;52.72;;;;;;;;;;10113189;28;20041;-77
2023/12/31 01:53:12;;;;;;;67.90;50.65;;;;;;;;;;10139006;28;20460;-77
2023/12/31 01:58:04;;;;;;;66.90;53.03;;;;;;;;;;10137741;28;20407;-77
2023/12/31 02:02:57;;;;;;;63.50;49.58;;;;;;;;;;10140634;28;20097;-77
2023/12/31 02:07:49;;;;;;;64.45;51.10;;;;;;;;;;10127603;28;20048;-77
2023/12/31 02:12:43;;;;;;;62.40;51.35;;;;;;;;;;10130556;28;20452;-77
2023/12/31 02:17:35;;;;;;;63.00;52.15;;;;;;;;;;10114470;28;20474;-77
2023/12/31 02:22:28;;;;;;;69.05;51.42;;;;;;;;;;10111419;28;20037;-77
2023/12/31 02:27:20;;;;;;;62.47;52.53;;;;;;;;;;10138588;28;20032;-77
2023/12/31 02:32:12;;;;;;;66.05;50.75;;;;;;;;;;10135682;28;20419;-77
2023/12/31 02:37:04;;;;;;;67.60;52.25;;;;;;;;;;10139245;28;20384;-77
2023/12/31 02:41:55;;;;;;;67.03;53.72;;;;;;;;;;10132068;28;20383;-77
2023/12/31 02:46:47;;;;;;;76.18;57.22;;;;;;;;;;10143574;28;20106;-77
2023/12/31 02:51:40;;;;;;;73.95;56.05;;;;;;;;;;10135845;28;20135;-77
2023/12/31 02:56:41;;;;;;;66.82;52.15;;;;;;;;;;10125324;28;20078;-77
2023/12/31 03:01:33;;;;;;;81.25;56.22;;;;;;;;;;10110267;28;20468;-77
2023/12/31 03:06:29;;;;;;;87.45;57.78;;;;;;;;;;10105401;28;20052;-77
2023/12/31 03:11:21;;;;;;;81.88;56.90;;;;;;;;;;10105710;28;20052;-77
2023/12/31 03:16:13;;;;;;;75.68;55.13;;;;;;;;;;10111333;28;20067;-77
2023/12/31 03:21:05;;;;;;;72.65;55.65;;;;;;;;;;10113585;28;20419;-77
2023/12/31 03:25:57;;;;;;;72.75;54.75;;;;;;;;;;10128547;28;20140;-77
2023/12/31 03:30:49;;;;;;;78.15;56.97;;;;;;;;;;10114654;28;20053;-78
2023/12/31 03:35:41;;;;;;;82.07;54.83;;;;;;;;;;10112299;28;20048;-77
2023/12/31 03:40:33;;;;;;;93.10;59.03;;;;;;;;;;10114331;28;20458;-77
2023/12/31 03:45:25;;;;;;;103.80;57.85;;;;;;;;;;10113005;28;20045;-77
2023/12/31 03:50:17;;;;;;;86.05;61.28;;;;;;;;;;10112450;28;20419;-77
2023/12/31 03:55:09;;;;;;;88.65;60.67;;;;;;;;;;10111177;28;20538;-77
2023/12/31 04:00:03;;;;;;;96.55;60.70;;;;;;;;;;10113685;28;20098;-76
2023/12/31 04:04:55;;;;;;;93.88;61.22;;;;;;;;;;10112165;28;20079;-77
2023/12/31 04:09:47;;;;;;;97.53;63.25;;;;;;;;;;10111727;28;20044;-77
2023/12/31 04:14:39;;;;;;;141.18;63.55;;;;;;;;;;10109875;28;20041;-77
2023/12/31 04:19:31;;;;;;;98.57;61.47;;;;;;;;;;10112221;28;20383;-77
2023/12/31 04:24:23;;;;;;;158.95;68.90;;;;;;;;;;10111823;28;20102;-77
2023/12/31 04:29:15;;;;;;;118.03;65.00;;;;;;;;;;10109025;28;20057;-77
2023/12/31 04:34:07;;;;;;;102.65;63.55;;;;;;;;;;10111528;28;20100;-77
2023/12/31 04:38:59;;;;;;;92.47;61.38;;;;;;;;;;10110667;28;20052;-77
2023/12/31 04:43:51;;;;;;;81.25;59.67;;;;;;;;;;10110690;28;20476;-77
2023/12/31 04:48:43;;;;;;;79.65;59.72;;;;;;;;;;10110178;28;20045;-77
2023/12/31 04:53:36;;;;;;;88.15;59.30;;;;;;;;;;10110729;28;20044;-77
2023/12/31 04:58:27;;;;;;;91.43;62.20;;;;;;;;;;10109451;28;20045;-77
2023/12/31 05:03:19;;;;;;;78.13;57.63;;;;;;;;;;10113101;28;20044;-77
2023/12/31 05:08:13;;;;;;;76.03;58.10;;;;;;;;;;10118001;28;20041;-77
2023/12/31 05:13:05;;;;;;;69.97;56.45;;;;;;;;;;10109968;28;20045;-77
2023/12/31 05:17:57;;;;;;;71.68;56.50;;;;;;;;;;10109573;28;20047;-77
2023/12/31 05:22:49;;;;;;;76.68;58.78;;;;;;;;;;10124583;28;20072;-77
2023/12/31 05:27:41;;;;;;;76.18;55.05;;;;;;;;;;10109062;28;20049;-77
2023/12/31 05:32:33;;;;;;;101.65;71.65;;;;;;;;;;10108166;28;20056;-77
2023/12/31 05:37:24;;;;;;;93.68;64.50;;;;;;;;;;10108287;28;20044;-77
2023/12/31 05:42:16;;;;;;;84.15;54.35;;;;;;;;;;10108625;28;20043;-78
2023/12/31 05:47:08;;;;;;;77.70;55.00;;;;;;;;;;10107705;28;20529;-77
2023/12/31 05:52:00;;;;;;;76.25;59.25;;;;;;;;;;10106748;28;20049;-77
2023/12/31 05:56:52;;;;;;;84.75;57.78;;;;;;;;;;10107982;28;20051;-79
2023/12/31 06:01:45;;;;;;;80.88;59.13;;;;;;;;;;10107268;28;20045;-79
2023/12/31 06:06:37;;;;;;;79.60;57.65;;;;;;;;;;10107901;28;20069;-77
2023/12/31 06:11:29;;;;;;;86.82;61.15;;;;;;;;;;10107085;28;20450;-78
2023/12/31 06:16:21;;;;;;;82.25;57.13;;;;;;;;;;10107242;28;20152;-80
2023/12/31 06:21:13;;;;;;;94.07;57.53;;;;;;;;;;10107296;28;20080;-80
2023/12/31 06:26:05;;;;;;;83.55;52.28;;;;;;;;;;10108425;28;20049;-80
2023/12/31 06:30:56;;;;;;;88.55;52.72;;;;;;;;;;10106575;28;20049;-77
2023/12/31 06:35:48;;;;;;;92.60;58.47;;;;;;;;;;10107023;28;20045;-78
2023/12/31 06:40:40;;;;;;;72.22;48.78;;;;;;;;;;10107244;28;20460;-77
2023/12/31 06:45:32;;;;;;;66.20;42.88;;;;;;;;;;10106460;28;20045;-77
2023/12/31 06:50:28;;;;;;;97.70;58.05;;;;;;;;;;10110560;28;20356;-77
2023/12/31 06:55:21;;;;;;;78.20;49.10;;;;;;;;;;10114890;28;20082;-78
2023/12/31 07:00:13;;;;;;;82.38;45.03;;;;;;;;;;10115248;28;20129;-78
2023/12/31 07:05:05;;;;;;;89.10;56.15;;;;;;;;;;10140426;28;20040;-77
2023/12/31 07:09:57;;;;;;;70.75;47.55;;;;;;;;;;10123965;28;20048;-77
2023/12/31 07:14:49;;;;;;;72.35;42.50;;;;;;;;;;10137478;28;20045;-77
2023/12/31 07:19:40;;;;;;;68.60;44.40;;;;;;;;;;10136485;28;20069;-77
2023/12/31 07:24:32;;;;;;;71.43;44.47;;;;;;;;;;10132030;28;20037;-77
2023/12/31 07:29:24;;;;;;;74.20;43.97;;;;;;;;;;10134980;28;20105;-77
2023/12/31 07:34:16;;;;;;;69.90;43.92;;;;;;;;;;10140637;28;20052;-78
2023/12/31 07:39:08;;;;;;;61.58;40.72;;;;;;;;;;10129505;28;20053;-77
2023/12/31 07:44:00;;;;;;;68.28;43.28;;;;;;;;;;10128879;28;20414;-77
2023/12/31 07:48:52;;;;;;;64.75;42.75;;;;;;;;;;10130782;28;20091;-77
2023/12/31 07:53:44;;;;;;;70.57;43.28;;;;;;;;;;10138065;28;20043;-77
2023/12/31 07:58:36;;;;;;;67.30;47.78;;;;;;;;;;10141502;28;20056;-77
2023/12/31 08:03:29;;;;;;;66.00;41.97;;;;;;;;;;10135006;28;20037;-77
2023/12/31 08:08:21;;;;;;;59.58;40.17;;;;;;;;;;10134126;28;20064;-77
2023/12/31 08:13:13;;;;;;;58.10;38.25;;;;;;;;;;10114454;28;20464;-77
2023/12/31 08:18:05;;;;;;;61.40;37.90;;;;;;;;;;10127911;28;20062;-77
2023/12/31 08:22:58;;;;;;;56.20;36.28;;;;;;;;;;10127044;28;20083;-77
2023/12/31 08:27:50;;;;;;;57.28;38.78;;;;;;;;;;10138147;28;20374;-77
2023/12/31 08:32:42;;;;;;;56.17;36.75;;;;;;;;;;10138989;28;20421;-77
2023/12/31 08:37:33;;;;;;;55.63;38.17;;;;;;;;;;10126500;28;20414;-77
2023/12/31 08:42:25;;;;;;;67.50;53.35;;;;;;;;;;10118034;28;20407;-77
2023/12/31 08:47:17;;;;;;;76.18;55.22;;;;;;;;;;10138838;28;20044;-77
2023/12/31 08:52:09;;;;;;;75.78;51.70;;;;;;;;;;10138591;28;20124;-77
2023/12/31 08:57:01;;;;;;;55.30;40.40;;;;;;;;;;10125149;28;20139;-78
2023/12/31 09:01:53;;;;;;;50.45;36.08;;;;;;;;;;10134312;28;20040;-77
2023/12/31 09:06:46;;;;;;;52.30;36.35;;;;;;;;;;10146602;28;20128;-77
2023/12/31 09:11:38;;;;;;;51.38;37.33;;;;;;;;;;10136973;28;20048;-77
2023/12/31 09:16:29;;;;;;;67.05;47.08;;;;;;;;;;10129618;28;20047;-78
2023/12/31 09:21:21;;;;;;;92.43;67.93;;;;;;;;;;10139393;28;20039;-77
2023/12/31 09:26:13;;;;;;;51.03;37.92;;;;;;;;;;10138630;28;20475;-77
2023/12/31 09:31:05;;;;;;;57.67;37.38;;;;;;;;;;10146647;28;20058;-77
2023/12/31 09:35:57;;;;;;;59.90;39.45;;;;;;;;;;10122414;28;20041;-78
2023/12/31 09:40:51;;;;;;;64.80;38.92;;;;;;;;;;10106069;28;20045;-77
2023/12/31 09:45:43;;;;;;;51.78;35.47;;;;;;;;;;10143266;28;20383;-77
2023/12/31 09:50:35;;;;;;;60.05;42.97;;;;;;;;;;10143827;28;20131;-77
2023/12/31 09:55:28;;;;;;;62.25;40.38;;;;;;;;;;10140134;28;20349;-80
2023/12/31 10:00:20;;;;;;;58.45;42.10;;;;;;;;;;10128700;28;20471;-77
2023/12/31 10:05:14;;;;;;;68.70;41.80;;;;;;;;;;10113164;28;20044;-77
2023/12/31 10:10:07;;;;;;;61.08;42.30;;;;;;;;;;10134857;28;20483;-77
2023/12/31 10:14:59;;;;;;;65.60;45.13;;;;;;;;;;10122033;28;20049;-77
2023/12/31 10:19:51;;;;;;;62.80;41.88;;;;;;;;;;10140805;28;20052;-77
2023/12/31 10:24:43;;;;;;;61.85;41.35;;;;;;;;;;10147275;28;20121;-76
2023/12/31 10:29:35;;;;;;;69.20;43.65;;;;;;;;;;10123582;28;20053;-77
2023/12/31 10:34:27;;;;;;;65.07;40.80;;;;;;;;;;10139041;28;20040;-76
2023/12/31 10:39:27;;;;;;;171.98;154.63;;;;;;;;;;10136001;28;20060;-77
2023/12/31 10:44:19;;;;;;;56.33;38.78;;;;;;;;;;10132114;28;20033;-77
2023/12/31 10:49:11;;;;;;;58.72;38.92;;;;;;;;;;10132490;28;20067;-76
2023/12/31 10:54:05;;;;;;;58.65;39.85;;;;;;;;;;10147521;28;20468;-77
2023/12/31 10:58:58;;;;;;;61.67;38.38;;;;;;;;;;10135849;28;20122;-76
2023/12/31 11:03:52;;;;;;;62.53;41.55;;;;;;;;;;10132702;28;20037;-76
2023/12/31 11:08:45;;;;;;;67.57;44.08;;;;;;;;;;10113284;28;20045;-76
2023/12/31 11:13:39;;;;;;;73.50;48.78;;;;;;;;;;10120154;28;20490;-76
2023/12/31 11:18:41;;;;;;;66.72;40.30;;;;;;;;;;10117356;28;20096;-76
2023/12/31 11:23:45;;;;;;;74.75;42.55;;;;;;;;;;10122507;28;20658;-75
2023/12/31 11:28:47;;;;;;;72.88;47.33;;;;;;;;;;10127466;28;20061;-75
2023/12/31 11:33:39;;;;;;;75.50;45.08;;;;;;;;;;10121821;28;20033;-75
2023/12/31 11:39:00;;;;;;;77.30;46.80;;;;;;;;;;10123783;28;20422;-75
2023/12/31 11:43:53;;;;;;;67.15;40.97;;;;;;;;;;10113425;28;20476;-77
2023/12/31 11:48:47;;;;;;;69.70;45.83;;;;;;;;;;10114929;28;20045;-77
2023/12/31 11:53:48;;;;;;;76.55;45.97;;;;;;;;;;10130351;28;20036;-76
2023/12/31 11:58:42;;;;;;;72.30;44.03;;;;;;;;;;10118991;28;20048;-75
2023/12/31 12:03:34;;;;;;;71.32;43.97;;;;;;;;;;10125952;28;20045;-77
2023/12/31 12:08:26;;;;;;;73.25;46.15;;;;;;;;;;10111507;28;20111;-77
2023/12/31 12:13:18;;;;;;;66.65;43.28;;;;;;;;;;10125316;28;20044;-76
2023/12/31 12:18:24;;;;;;;68.97;46.70;;;;;;;;;;10121681;28;20053;-76
2023/12/31 12:23:18;;;;;;;66.80;44.35;;;;;;;;;;10125118;28;20041;-75
2023/12/31 12:28:10;;;;;;;79.55;47.92;;;;;;;;;;10136809;28;21303;-78
2023/12/31 12:33:02;;;;;;;67.10;44.40;;;;;;;;;;10130167;28;20087;-74
2023/12/31 12:37:55;;;;;;;79.45;45.40;;;;;;;;;;10120215;28;20081;-74
2023/12/31 12:42:47;;;;;;;78.40;45.50;;;;;;;;;;10110798;28;20041;-74
2023/12/31 12:47:41;;;;;;;66.35;45.08;;;;;;;;;;10122398;28;20045;-75
2023/12/31 12:52:33;;;;;;;73.22;47.75;;;;;;;;;;10117555;28;20589;-74
2023/12/31 12:57:26;;;;;;;81.55;48.78;;;;;;;;;;10129070;28;20075;-74
2023/12/31 13:02:18;;;;;;;82.22;50.40;;;;;;;;;;10107273;28;20095;-74
2023/12/31 13:07:10;;;;;;;94.68;59.00;;;;;;;;;;10111499;28;20052;-74
2023/12/31 13:12:03;;;;;;;79.57;52.08;;;;;;;;;;10106219;28;20037;-74
2023/12/31 13:16:55;;;;;;;79.68;48.42;;;;;;;;;;10121766;28;20056;-74
2023/12/31 13:21:48;;;;;;;78.13;52.33;;;;;;;;;;10122182;28;20064;-74
2023/12/31 13:26:41;;;;;;;76.15;50.25;;;;;;;;;;10118940;28;20045;-72
2023/12/31 13:31:33;;;;;;;102.25;61.67;;;;;;;;;;10115081;28;20049;-74
2023/12/31 13:36:29;;;;;;;76.20;51.42;;;;;;;;;;10107733;28;20132;-74
2023/12/31 13:41:23;;;;;;;78.70;52.70;;;;;;;;;;10116848;28;20269;-74
2023/12/31 13:46:15;;;;;;;75.70;49.88;;;;;;;;;;10117344;28;20383;-74
2023/12/31 13:51:09;;;;;;;81.25;52.85;;;;;;;;;;10126060;28;20037;-74
2023/12/31 13:56:01;;;;;;;80.93;50.03;;;;;;;;;;10120930;28;20172;-74
2023/12/31 14:00:53;;;;;;;77.50;50.42;;;;;;;;;;10117568;28;20496;-74
2023/12/31 14:05:45;;;;;;;71.18;50.72;;;;;;;;;;10113918;28;20044;-74
2023/12/31 14:10:37;;;;;;;70.25;48.50;;;;;;;;;;10125311;28;20053;-74
2023/12/31 14:15:32;;;;;;;69.30;50.13;;;;;;;;;;10125764;28;20037;-74
2023/12/31 14:20:24;;;;;;;75.30;50.65;;;;;;;;;;10117968;28;20037;-74
2023/12/31 14:25:16;;;;;;;77.25;49.80;;;;;;;;;;10114623;28;20147;-73
2023/12/31 14:30:09;;;;;;;75.97;48.10;;;;;;;;;;10123291;28;20052;-74
2023/12/31 14:35:02;;;;;;;78.32;48.95;;;;;;;;;;10117370;28;20049;-74
2023/12/31 14:39:55;;;;;;;74.00;49.53;;;;;;;;;;10113662;28;20426;-74
2023/12/31 14:44:48;;;;;;;79.32;54.30;;;;;;;;;;10121681;28;20128;-74
2023/12/31 14:49:40;;;;;;;83.43;50.72;;;;;;;;;;10131248;28;20135;-74
2023/12/31 14:54:32;;;;;;;86.07;52.83;;;;;;;;;;10126472;28;20452;-74
2023/12/31 14:59:24;;;;;;;81.97;50.15;;;;;;;;;;10119448;28;20471;-76
2023/12/31 15:04:16;;;;;;;83.28;52.28;;;;;;;;;;10127341;28;20067;-82
2023/12/31 15:09:08;;;;;;;95.88;56.33;;;;;;;;;;10112221;28;20443;-77
2023/12/31 15:14:00;;;;;;;93.63;52.65;;;;;;;;;;10124090;28;20071;-75
2023/12/31 15:18:52;;;;;;;93.18;55.95;;;;;;;;;;10123297;28;20047;-74
2023/12/31 15:23:44;;;;;;;88.35;52.65;;;;;;;;;;10129978;28;20051;-74
2023/12/31 15:28:36;;;;;;;96.47;58.75;;;;;;;;;;10128871;28;20049;-74
2023/12/31 15:33:28;;;;;;;91.15;54.13;;;;;;;;;;10130255;28;20538;-74
2023/12/31 15:38:20;;;;;;;95.80;54.22;;;;;;;;;;10124531;28;20048;-74
2023/12/31 15:43:12;;;;;;;93.45;55.15;;;;;;;;;;10130013;28;20045;-74
2023/12/31 15:48:04;;;;;;;86.32;54.55;;;;;;;;;;10148603;28;20124;-64
2023/12/31 15:52:57;;;;;;;103.82;63.53;;;;;;;;;;10117859;28;20136;-73
2023/12/31 15:57:49;;;;;;;102.93;61.30;;;;;;;;;;10119176;28;20418;-73
2023/12/31 16:02:44;;;;;;;99.82;59.35;;;;;;;;;;10111198;28;20044;-73
2023/12/31 16:07:36;;;;;;;102.60;59.75;;;;;;;;;;10125900;28;20053;-74
2023/12/31 16:12:28;;;;;;;86.57;56.90;;;;;;;;;;10135089;28;20105;-74
2023/12/31 16:17:20;;;;;;;97.25;59.17;;;;;;;;;;10125332;28;20119;-74
2023/12/31 16:22:12;;;;;;;102.88;60.78;;;;;;;;;;10139533;28;20040;-71
2023/12/31 16:27:04;;;;;;;89.15;60.75;;;;;;;;;;10122598;28;20045;-72
2023/12/31 16:31:56;;;;;;;96.03;59.60;;;;;;;;;;10139753;28;20049;-71
2023/12/31 16:36:48;;;;;;;100.43;58.03;;;;;;;;;;10129902;28;20083;-71
2023/12/31 16:41:40;;;;;;;92.78;57.08;;;;;;;;;;10133236;28;20033;-71
2023/12/31 16:46:32;;;;;;;105.35;60.33;;;;;;;;;;10114222;28;20052;-71
2023/12/31 16:51:25;;;;;;;113.60;67.10;;;;;;;;;;10146717;28;20118;-72
2023/12/31 16:56:17;;;;;;;114.03;68.88;;;;;;;;;;10128885;28;20040;-73
2023/12/31 17:01:09;;;;;;;108.82;67.10;;;;;;;;;;10116359;28;20053;-73
2023/12/31 17:06:01;;;;;;;186.07;60.30;;;;;;;;;;10140810;28;20122;-72
2023/12/31 17:10:54;;;;;;;112.60;63.13;;;;;;;;;;10143159;28;20454;-72
2023/12/31 17:15:46;;;;;;;106.95;65.45;;;;;;;;;;10124552;28;20059;-72
2023/12/31 17:20:38;;;;;;;128.10;66.20;;;;;;;;;;10127232;28;20056;-72
2023/12/31 17:25:30;;;;;;;198.18;67.18;;;;;;;;;;10155225;28;20052;-72
2023/12/31 17:30:22;;;;;;;116.13;66.97;;;;;;;;;;10116968;28;20106;-72
2023/12/31 17:35:14;;;;;;;110.72;64.22;;;;;;;;;;10116272;28;20037;-72
2023/12/31 17:40:07;;;;;;;102.05;58.53;;;;;;;;;;10135838;28;20048;-73
2023/12/31 17:44:59;;;;;;;102.13;60.58;;;;;;;;;;10140760;28;20229;-74
2023/12/31 17:49:51;;;;;;;157.48;65.25;;;;;;;;;;10130410;28;20491;-73
2023/12/31 17:54:43;;;;;;;121.53;58.08;;;;;;;;;;10132190;28;20463;-85
2023/12/31 17:59:35;;;;;;;120.30;60.00;;;;;;;;;;10129976;28;20033;-80
2023/12/31 18:04:27;;;;;;;217.55;72.05;;;;;;;;;;10133646;28;20044;-82
2023/12/31 18:09:19;;;;;;;112.38;64.38;;;;;;;;;;10132005;28;20119;-74
2023/12/31 18:14:11;;;;;;;151.68;67.53;;;;;;;;;;10134698;28;20138;-74
2023/12/31 18:19:02;;;;;;;109.22;63.75;;;;;;;;;;10136671;28;20049;-74
2023/12/31 18:23:55;;;;;;;170.93;69.85;;;;;;;;;;10130289;28;20090;-74
2023/12/31 18:28:47;;;;;;;168.98;67.75;;;;;;;;;;10137886;28;20460;-73
2023/12/31 18:33:39;;;;;;;162.38;68.78;;;;;;;;;;10121132;28;20107;-73
2023/12/31 18:38:30;;;;;;;119.65;56.85;;;;;;;;;;10131195;28;20033;-72
2023/12/31 18:43:22;;;;;;;127.15;65.05;;;;;;;;;;10138429;28;20036;-72
2023/12/31 18:48:14;;;;;;;124.60;59.60;;;;;;;;;;10137244;28;20037;-72
2023/12/31 18:53:06;;;;;;;100.68;59.45;;;;;;;;;;10143678;28;20049;-73
2023/12/31 18:57:59;;;;;;;104.85;57.50;;;;;;;;;;10130592;28;20967;-72
2023/12/31 19:02:51;;;;;;;99.20;61.75;;;;;;;;;;10129481;28;20051;-73
2023/12/31 19:07:44;;;;;;;88.43;58.20;;;;;;;;;;10127302;28;20049;-73
2023/12/31 19:12:36;;;;;;;77.43;55.75;;;;;;;;;;10130496;28;20051;-73
2023/12/31 19:17:29;;;;;;;71.95;51.90;;;;;;;;;;10135802;28;20138;-72
2023/12/31 19:22:21;;;;;;;66.25;49.10;;;;;;;;;;10133826;28;20397;-73
2023/12/31 19:27:13;;;;;;;75.22;55.20;;;;;;;;;;10115688;28;20140;-74
2023/12/31 19:32:06;;;;;;;71.25;52.90;;;;;;;;;;10124747;28;20048;-73
2023/12/31 19:36:58;;;;;;;74.28;52.65;;;;;;;;;;10131830;28;20376;-73
2023/12/31 19:41:51;;;;;;;79.68;57.35;;;;;;;;;;10127519;28;20124;-73
2023/12/31 19:46:47;;;;;;;70.72;51.00;;;;;;;;;;10148340;28;20048;-73
2023/12/31 19:51:42;;;;;;;79.63;56.13;;;;;;;;;;10142832;28;20053;-73
2023/12/31 19:56:34;;;;;;;74.80;54.22;;;;;;;;;;10140968;28;20072;-72
2023/12/31 20:01:28;;;;;;;78.35;54.92;;;;;;;;;;10137671;28;20033;-73
2023/12/31 20:06:20;;;;;;;70.97;52.83;;;;;;;;;;10145556;28;20064;-72
2023/12/31 20:11:13;;;;;;;68.00;48.88;;;;;;;;;;10128554;28;20467;-72
2023/12/31 20:16:05;;;;;;;72.97;54.53;;;;;;;;;;10141439;28;20048;-73
2023/12/31 20:20:57;;;;;;;68.00;50.30;;;;;;;;;;10135173;28;20522;-72
2023/12/31 20:25:48;;;;;;;74.47;51.80;;;;;;;;;;10143586;28;20051;-72
2023/12/31 20:30:40;;;;;;;108.60;81.40;;;;;;;;;;10118363;28;20443;-72
2023/12/31 20:35:33;;;;;;;61.90;46.28;;;;;;;;;;10147044;28;20056;-72
2023/12/31 20:40:25;;;;;;;75.80;55.20;;;;;;;;;;10128749;28;20425;-72
2023/12/31 20:45:17;;;;;;;71.22;54.22;;;;;;;;;;10142965;28;20480;-73
2023/12/31 20:50:09;;;;;;;64.15;45.08;;;;;;;;;;10133056;28;20054;-72
2023/12/31 20:55:01;;;;;;;60.38;47.17;;;;;;;;;;10132086;28;20040;-72
2023/12/31 20:59:56;;;;;;;62.13;46.72;;;;;;;;;;10131972;28;20040;-72
2023/12/31 21:04:48;;;;;;;70.07;49.75;;;;;;;;;;10143553;28;20040;-72
2023/12/31 21:09:40;;;;;;;65.30;48.20;;;;;;;;;;10130066;28;20444;-73
2023/12/31 21:14:32;;;;;;;85.32;60.17;;;;;;;;;;10142133;28;20041;-72
2023/12/31 21:19:24;;;;;;;75.00;54.80;;;;;;;;;;10138898;28;20075;-72
2023/12/31 21:24:16;;;;;;;89.28;60.47;;;;;;;;;;10144925;28;20396;-72
2023/12/31 21:29:10;;;;;;;77.97;54.05;;;;;;;;;;10129067;28;20083;-73
2023/12/31 21:34:02;;;;;;;80.15;57.38;;;;;;;;;;10138614;28;20480;-73
2023/12/31 21:38:56;;;;;;;74.20;54.10;;;;;;;;;;10126449;28;20048;-73
2023/12/31 21:43:48;;;;;;;58.55;45.85;;;;;;;;;;10128151;28;20040;-72
2023/12/31 21:48:42;;;;;;;59.28;44.67;;;;;;;;;;10126925;28;20045;-72
2023/12/31 21:53:34;;;;;;;70.93;52.95;;;;;;;;;;10140036;28;20048;-72
2023/12/31 21:58:26;;;;;;;123.47;63.40;;;;;;;;;;10132558;28;20360;-74
2023/12/31 22:03:19;;;;;;;123.38;65.50;;;;;;;;;;10123847;28;20048;-73
2023/12/31 22:08:11;;;;;;;71.82;57.08;;;;;;;;;;10137775;28;20048;-74
2023/12/31 22:13:03;;;;;;;138.18;55.13;;;;;;;;;;10133799;28;20079;-73
2023/12/31 22:17:56;;;;;;;214.65;63.97;;;;;;;;;;10133441;28;20075;-73
2023/12/31 22:22:48;;;;;;;182.00;58.75;;;;;;;;;;10130437;28;20066;-73
2023/12/31 22:27:39;;;;;;;130.18;53.22;;;;;;;;;;10124110;28;20044;-73
2023/12/31 22:32:31;;;;;;;92.18;48.78;;;;;;;;;;10139436;28;20051;-73
2023/12/31 22:37:23;;;;;;;68.47;43.40;;;;;;;;;;10122793;28;20043;-73
2023/12/31 22:42:15;;;;;;;51.63;38.20;;;;;;;;;;10136462;28;20059;-73
2023/12/31 22:47:07;;;;;;;46.08;36.72;;;;;;;;;;10132728;28;20120;-74
2023/12/31 22:51:59;;;;;;;43.97;32.10;;;;;;;;;;10114296;28;20066;-76
2023/12/31 22:56:51;;;;;;;32.10;25.73;;;;;;;;;;10124006;28;20044;-73
2023/12/31 23:01:43;;;;;;;27.73;23.20;;;;;;;;;;10127569;28;20044;-73
2023/12/31 23:06:35;;;;;;;28.58;25.70;;;;;;;;;;10125101;28;20102;-73
2023/12/31 23:11:27;;;;;;;22.98;18.70;;;;;;;;;;10109068;28;20053;-75
2023/12/31 23:16:18;;;;;;;33.38;29.00;;;;;;;;;;10125997;28;20041;-76
2023/12/31 23:21:11;;;;;;;35.92;30.67;;;;;;;;;;10136963;28;20079;-71
2023/12/31 23:26:03;;;;;;;33.38;29.67;;;;;;;;;;10143275;28;20048;-76
2023/12/31 23:30:56;;;;;;;15.98;14.30;;;;;;;;;;10136470;28;20454;-75
2023/12/31 23:35:48;;;;;;;11.32;10.23;;;;;;;;;;10125121;28;20041;-75
2023/12/31 23:40:40;;;;;;;7.25;6.20;;;;;;;;;;10121292;28;20613;-74
2023/12/31 23:45:32;;;;;;;7.13;6.43;;;;;;;;;;10149019;28;20049;-75
2023/12/31 23:50:25;;;;;;;7.40;6.15;;;;;;;;;;10127144;28;20049;-75
2023/12/31 23:55:20;;;;;;;5.60;5.10;;;;;;;;;;10142559;28;20046;-75
